Fulmar — WDD3992 — position and weather

sailwx.info

Track history (hours):
 
Tides and Currents Weather Stations Pressure Air Temp Water Temp Dewpoint Dewpoint Depression Visibility Wind Speed Wind Dir Waves Ship Positions

Oceanographic research ship Fulmar (United States)

Owner: NOAA R/V Fulmar, Monterey, CA. More information available from US FCC via Universal Licensing System.

Last reported at 2017-Jun-23 18:42 UTC. Time now 2017-Jun-26 19:08 UTC.
Position N 36°37' W 121°54'.

Length 20 m; draft 2 m.

Type: Ship. MMSI: 367139040.

Date/timePositionNaut miles runAvg speedWind from/ knotsBaromVisibWave heightAir tempDewpointWater temp
2017-Jun-23 18:42N 36°37' W 121°54'0 0.0
2017-Jun-23 18:30N 36°37' W 121°54'0 0.2
2017-Jun-23 18:00N 36°37' W 121°54'0 0.0
2017-Jun-23 17:30N 36°37' W 121°54'0 0.2
2017-Jun-23 17:00N 36°37' W 121°54'  
2017-Jun-16 21:41N 36°37' W 121°54'0 0.0
2017-Jun-16 21:30N 36°37' W 121°54'4 7.5
2017-Jun-16 20:58N 36°36' W 121°59'3 0.8
2017-Jun-16 16:48N 36°33' W 121°57'0 0.2
2017-Jun-16 16:23N 36°34' W 121°57'5 8.2
2017-Jun-16 15:47N 36°38' W 121°54'1 4.6
2017-Jun-16 15:30N 36°37' W 121°54'0 0.0
2017-Jun-16 15:00N 36°37' W 121°54'0 0.0
2017-Jun-16 14:31N 36°37' W 121°54'0 0.0
2017-Jun-14 21:52N 36°37' W 121°54'1 2.2
2017-Jun-14 21:30N 36°37' W 121°54'510.4
2017-Jun-14 21:00N 36°35' W 121°59'2 0.5
2017-Jun-14 16:28N 36°33' W 121°57'5 7.2
2017-Jun-14 15:47N 36°38' W 121°54'2 5.5
2017-Jun-14 15:30N 36°37' W 121°54'0 0.0
2017-Jun-14 15:00N 36°37' W 121°54'0 0.0
2017-Jun-14 14:30N 36°37' W 121°54'0 0.0
2017-Jun-13 23:45N 36°37' W 121°54'0 0.2
2017-Jun-13 23:30N 36°37' W 121°53'4 6.7
2017-Jun-13 22:55N 36°37' W 121°58'  
Track history (hours):
 
Tides and Currents Weather Stations Pressure Air Temp Water Temp Dewpoint Dewpoint Depression Visibility Wind Speed Wind Dir Waves Ship Positions

Oceanographic research ship Fulmar (United States)

Owner: NOAA R/V Fulmar, Monterey, CA. More information available from US FCC via Universal Licensing System.

Last reported at 2017-Jun-23 18:42 UTC. Time now 2017-Jun-26 19:08 UTC.
Position N 36°37' W 121°54'.

Length 20 m; draft 2 m.

Type: Ship. MMSI: 367139040.

Date/timePositionNaut miles runAvg speedWind from/ knotsBaromVisibWave heightAir tempDewpointWater temp
2017-Jun-23 18:42N 36°37' W 121°54'0 0.0
2017-Jun-23 18:30N 36°37' W 121°54'0 0.2
2017-Jun-23 18:00N 36°37' W 121°54'0 0.0
2017-Jun-23 17:30N 36°37' W 121°54'0 0.2
2017-Jun-23 17:00N 36°37' W 121°54'  
2017-Jun-16 21:41N 36°37' W 121°54'0 0.0
2017-Jun-16 21:30N 36°37' W 121°54'4 7.5
2017-Jun-16 20:58N 36°36' W 121°59'3 0.8
2017-Jun-16 16:48N 36°33' W 121°57'0 0.2
2017-Jun-16 16:23N 36°34' W 121°57'5 8.2
2017-Jun-16 15:47N 36°38' W 121°54'1 4.6
2017-Jun-16 15:30N 36°37' W 121°54'0 0.0
2017-Jun-16 15:00N 36°37' W 121°54'0 0.0
2017-Jun-16 14:31N 36°37' W 121°54'0 0.0
2017-Jun-14 21:52N 36°37' W 121°54'1 2.2
2017-Jun-14 21:30N 36°37' W 121°54'510.4
2017-Jun-14 21:00N 36°35' W 121°59'2 0.5
2017-Jun-14 16:28N 36°33' W 121°57'5 7.2
2017-Jun-14 15:47N 36°38' W 121°54'2 5.5
2017-Jun-14 15:30N 36°37' W 121°54'0 0.0
2017-Jun-14 15:00N 36°37' W 121°54'0 0.0
2017-Jun-14 14:30N 36°37' W 121°54'0 0.0
2017-Jun-13 23:45N 36°37' W 121°54'0 0.2
2017-Jun-13 23:30N 36°37' W 121°53'4 6.7
2017-Jun-13 22:55N 36°37' W 121°58'  

Dump ship's entire track history